createdAt,value
2019-05-19T00:00:46.124Z,23.30
2019-05-19T00:05:50.752Z,23.90
2019-05-19T00:10:55.480Z,26.83
2019-05-19T00:16:00.202Z,28.27
2019-05-19T00:21:04.920Z,26.20
2019-05-19T00:26:09.805Z,25.07
2019-05-19T00:31:14.458Z,25.23
2019-05-19T00:36:19.663Z,26.17
2019-05-19T00:41:24.426Z,24.30
2019-05-19T00:46:29.245Z,25.50
2019-05-19T00:51:33.829Z,26.33
2019-05-19T00:56:38.805Z,23.57
2019-05-19T01:01:43.467Z,21.17
2019-05-19T01:06:48.126Z,19.83
2019-05-19T01:11:52.759Z,19.73
2019-05-19T01:16:57.461Z,18.30
2019-05-19T01:22:02.113Z,17.83
2019-05-19T01:27:06.795Z,18.80
2019-05-19T01:32:12.070Z,17.03
2019-05-19T01:37:16.767Z,14.57
2019-05-19T01:42:21.450Z,15.90
2019-05-19T01:47:27.091Z,16.53
2019-05-19T01:52:31.670Z,18.27
2019-05-19T01:57:36.334Z,16.00
2019-05-19T02:02:40.938Z,16.87
2019-05-19T02:07:45.580Z,16.33
2019-05-19T02:12:50.343Z,18.30
2019-05-19T02:17:55.113Z,15.87
2019-05-19T02:22:59.848Z,15.83
2019-05-19T02:28:04.611Z,15.17
2019-05-19T02:33:09.216Z,14.90
2019-05-19T02:38:13.899Z,15.03
2019-05-19T02:43:18.881Z,16.87
2019-05-19T02:48:25.066Z,16.83
2019-05-19T02:53:30.845Z,17.43
2019-05-19T02:58:35.730Z,16.77
2019-05-19T03:03:40.341Z,18.57
2019-05-19T03:08:45.040Z,18.47
2019-05-19T03:13:49.740Z,19.50
2019-05-19T03:18:54.458Z,17.33
2019-05-19T03:23:59.136Z,18.23
2019-05-19T03:29:03.940Z,18.50
2019-05-19T03:34:08.568Z,21.90
2019-05-19T03:39:13.240Z,21.27
2019-05-19T03:44:17.905Z,19.37
2019-05-19T03:49:23.554Z,22.60
2019-05-19T03:54:28.310Z,19.27
2019-05-19T03:59:33.049Z,20.23
2019-05-19T04:04:37.660Z,20.17
2019-05-19T04:09:42.255Z,20.10
2019-05-19T04:14:46.917Z,20.93
2019-05-19T04:19:51.567Z,20.97
2019-05-19T04:24:56.251Z,18.67
2019-05-19T04:30:00.887Z,19.40
2019-05-19T04:35:05.826Z,19.27
2019-05-19T04:40:10.786Z,19.83
2019-05-19T04:45:15.802Z,19.23
2019-05-19T04:50:21.587Z,18.93
2019-05-19T04:55:26.284Z,19.07
2019-05-19T05:00:30.878Z,17.77
2019-05-19T05:05:35.621Z,19.53
2019-05-19T05:10:40.306Z,19.23
2019-05-19T05:15:45.026Z,18.73
2019-05-19T05:20:49.696Z,18.57
2019-05-19T05:25:54.286Z,16.60
2019-05-19T05:30:58.978Z,16.17
2019-05-19T05:36:03.695Z,19.63
2019-05-19T05:41:08.380Z,16.97
2019-05-19T05:46:13.227Z,18.17
2019-05-19T05:51:18.945Z,17.87
2019-05-19T05:56:23.565Z,17.90
2019-05-19T06:01:28.112Z,17.10
2019-05-19T06:06:32.680Z,15.47
2019-05-19T06:11:37.335Z,16.20
2019-05-19T06:16:41.981Z,16.33
2019-05-19T06:21:46.650Z,15.67
2019-05-19T06:26:51.250Z,14.67
2019-05-19T06:31:59.607Z,14.17
2019-05-19T06:37:04.171Z,15.03
2019-05-19T06:42:08.800Z,15.27
2019-05-19T06:47:13.340Z,15.20
2019-05-19T06:52:19.128Z,14.83
2019-05-19T06:57:23.795Z,13.63
2019-05-19T07:02:28.570Z,14.03
2019-05-19T07:07:33.286Z,13.93
2019-05-19T07:12:38.160Z,14.03
2019-05-19T07:17:42.948Z,12.47
2019-05-19T07:22:47.652Z,11.43
2019-05-19T07:27:52.705Z,11.10
2019-05-19T07:32:57.625Z,11.43
2019-05-19T07:38:02.370Z,11.57
2019-05-19T07:43:07.258Z,11.30
2019-05-19T07:48:11.909Z,10.23
2019-05-19T07:53:18.559Z,10.10
2019-05-19T07:58:23.131Z,9.87
2019-05-19T08:03:27.730Z,10.57
2019-05-19T08:08:32.594Z,10.10
2019-05-19T08:13:37.427Z,10.33
2019-05-19T08:18:42.136Z,11.27
2019-05-19T08:24:00.041Z,10.87
2019-05-19T08:28:53.286Z,11.43
2019-05-19T08:33:58.212Z,11.33
2019-05-19T08:39:04.351Z,11.47
2019-05-19T08:44:09.170Z,11.70
2019-05-19T08:49:13.901Z,12.67
2019-05-19T08:54:19.561Z,11.67
2019-05-19T08:59:24.321Z,11.40
2019-05-19T09:04:29.321Z,11.83
2019-05-19T09:09:34.100Z,11.63
2019-05-19T09:14:39.020Z,11.17
2019-05-19T09:19:43.788Z,11.80
2019-05-19T09:24:48.489Z,10.97
2019-05-19T09:29:53.324Z,10.67
2019-05-19T09:34:58.079Z,12.10
2019-05-19T09:40:03.041Z,11.37
2019-05-19T09:45:08.599Z,11.97
2019-05-19T09:50:14.158Z,10.73
2019-05-19T09:55:19.742Z,12.23
2019-05-19T10:00:24.791Z,12.57
2019-05-19T10:05:29.521Z,12.17
2019-05-19T10:10:54.640Z,12.73
2019-05-19T10:15:59.311Z,12.90
2019-05-19T10:21:04.163Z,13.87
2019-05-19T10:26:08.978Z,15.33
2019-05-19T10:31:13.661Z,14.57
2019-05-19T10:36:18.421Z,15.10
2019-05-19T10:41:23.341Z,15.80
2019-05-19T10:46:28.567Z,14.70
2019-05-19T10:51:33.450Z,14.73
2019-05-19T10:56:39.381Z,14.33
2019-05-19T11:01:44.198Z,14.03
2019-05-19T11:06:49.076Z,13.87
2019-05-19T11:11:53.881Z,14.40
2019-05-19T11:16:58.612Z,12.17
2019-05-19T11:22:03.479Z,10.87
2019-05-19T11:27:10.043Z,9.77
2019-05-19T11:32:15.022Z,8.83
2019-05-19T11:37:19.790Z,8.30
2019-05-19T11:42:24.511Z,7.30
2019-05-19T11:47:29.451Z,6.33
2019-05-19T11:52:34.182Z,10.17
2019-05-19T11:57:39.904Z,10.63
2019-05-19T12:02:44.610Z,11.60
2019-05-19T12:07:49.418Z,10.30
2019-05-19T12:12:54.459Z,10.00
2019-05-19T12:17:59.101Z,10.13
2019-05-19T12:23:04.001Z,10.40
2019-05-19T12:28:08.755Z,10.10
2019-05-19T12:33:13.611Z,10.20
2019-05-19T12:38:18.420Z,9.83
2019-05-19T12:43:23.360Z,11.30
2019-05-19T12:48:28.080Z,10.63
2019-05-19T12:53:33.016Z,10.00
2019-05-19T12:58:38.847Z,9.97
2019-05-19T13:03:43.630Z,10.43
2019-05-19T13:08:48.476Z,10.43
2019-05-19T13:13:53.559Z,12.10
2019-05-19T13:18:58.709Z,10.07
2019-05-19T13:24:03.492Z,9.40
2019-05-19T13:29:08.318Z,10.00
2019-05-19T13:34:13.142Z,9.73
2019-05-19T13:39:17.881Z,9.90
2019-05-19T13:44:22.692Z,9.93
2019-05-19T13:49:27.520Z,9.30
2019-05-19T13:54:32.371Z,9.43
2019-05-19T13:59:38.062Z,9.13
2019-05-19T14:04:42.701Z,10.07
2019-05-19T14:09:47.521Z,10.27
2019-05-19T14:14:52.378Z,9.47
2019-05-19T14:19:57.121Z,9.30
2019-05-19T14:25:02.101Z,8.93
2019-05-19T14:30:07.462Z,10.03
2019-05-19T14:35:12.458Z,8.40
2019-05-19T14:40:17.402Z,8.97
2019-05-19T14:45:22.375Z,8.50
2019-05-19T14:50:27.540Z,8.10
2019-05-19T14:55:32.418Z,7.37
2019-05-19T15:00:37.386Z,8.60
2019-05-19T15:05:42.085Z,9.10
2019-05-19T15:10:46.781Z,8.67
2019-05-19T15:15:51.541Z,8.53
2019-05-19T15:20:56.450Z,10.93
2019-05-19T15:26:01.646Z,11.73
2019-05-19T15:31:06.679Z,10.13
2019-05-19T15:36:11.442Z,9.80
2019-05-19T15:41:16.183Z,8.97
2019-05-19T15:46:21.920Z,8.93
2019-05-19T15:51:28.854Z,8.90
2019-05-19T15:56:33.428Z,8.80
2019-05-19T16:01:38.286Z,10.13
2019-05-19T16:06:43.331Z,9.77
2019-05-19T16:11:48.206Z,8.73
2019-05-19T16:16:52.863Z,8.07
2019-05-19T16:21:57.782Z,8.00
2019-05-19T16:27:02.740Z,7.53
2019-05-19T16:32:07.552Z,8.37
2019-05-19T16:37:12.450Z,7.83
2019-05-19T16:42:17.280Z,7.97
2019-05-19T16:47:22.203Z,7.83
2019-05-19T16:52:26.994Z,7.50
2019-05-19T16:57:31.798Z,8.30
2019-05-19T17:02:36.581Z,8.13
2019-05-19T17:07:41.259Z,8.10
2019-05-19T17:12:46.093Z,7.80
2019-05-19T17:17:50.723Z,7.37
2019-05-19T17:22:55.401Z,7.60
2019-05-19T17:28:00.151Z,7.77
2019-05-19T17:33:04.963Z,8.83
2019-05-19T17:38:09.895Z,7.70
2019-05-19T17:43:14.618Z,8.47
2019-05-19T17:48:26.586Z,8.57
2019-05-19T17:53:25.881Z,7.30
2019-05-19T17:58:31.893Z,7.83
2019-05-19T18:03:36.661Z,7.07
2019-05-19T18:08:41.351Z,7.53
2019-05-19T18:13:46.105Z,7.43
2019-05-19T18:18:50.981Z,6.40
2019-05-19T18:23:55.674Z,6.13
2019-05-19T18:29:00.594Z,6.33
2019-05-19T18:34:05.422Z,9.93
2019-05-19T18:39:10.458Z,6.90
2019-05-19T18:44:15.111Z,6.63
2019-05-19T18:49:19.941Z,7.13
2019-05-19T18:54:24.582Z,6.93
2019-05-19T18:59:29.292Z,6.57
2019-05-19T19:04:34.062Z,7.47
2019-05-19T19:09:38.827Z,8.13
2019-05-19T19:14:43.602Z,12.43
2019-05-19T19:19:48.404Z,9.73
2019-05-19T19:24:53.179Z,8.37
2019-05-19T19:30:03.734Z,7.53
2019-05-19T19:35:04.651Z,7.17
2019-05-19T19:40:10.455Z,7.13
2019-05-19T19:45:15.499Z,6.80
2019-05-19T19:50:20.301Z,8.00
2019-05-19T19:55:25.139Z,8.03
2019-05-19T20:00:40.628Z,9.40
2019-05-19T20:05:46.288Z,8.13
2019-05-19T20:10:51.340Z,8.70
2019-05-19T20:15:56.589Z,8.53
2019-05-19T20:21:01.208Z,7.50
2019-05-19T20:26:06.059Z,6.73
2019-05-19T20:31:10.853Z,6.63
2019-05-19T20:36:15.752Z,6.43
2019-05-19T20:41:20.662Z,6.20
2019-05-19T20:46:25.498Z,5.40
2019-05-19T20:51:32.750Z,5.57
2019-05-19T20:56:37.580Z,5.70
2019-05-19T21:01:44.935Z,6.53
2019-05-19T21:06:48.879Z,7.43
2019-05-19T21:11:53.562Z,7.20
2019-05-19T21:16:58.261Z,8.07
2019-05-19T21:22:02.922Z,6.87
2019-05-19T21:27:07.702Z,6.00
2019-05-19T21:32:12.461Z,5.67
2019-05-19T21:37:17.182Z,5.80
2019-05-19T21:42:22.002Z,5.80
2019-05-19T21:47:26.681Z,4.83
2019-05-19T21:52:31.321Z,4.70
2019-05-19T21:57:36.138Z,4.13
2019-05-19T22:02:40.838Z,3.07
2019-05-19T22:07:54.052Z,3.27
2019-05-19T22:12:58.870Z,2.50
2019-05-19T22:18:03.841Z,3.03
2019-05-19T22:23:08.661Z,2.13
2019-05-19T22:28:13.381Z,2.63
2019-05-19T22:33:18.181Z,2.43
2019-05-19T22:38:22.960Z,2.47
2019-05-19T22:43:27.790Z,3.00
2019-05-19T22:48:32.622Z,2.50
2019-05-19T22:53:37.572Z,2.57
2019-05-19T22:58:42.343Z,2.30
2019-05-19T23:03:47.101Z,2.70
2019-05-19T23:08:51.939Z,2.40
2019-05-19T23:13:56.584Z,2.20
2019-05-19T23:19:01.301Z,2.47
2019-05-19T23:24:06.301Z,3.23
2019-05-19T23:29:10.941Z,3.07
2019-05-19T23:34:15.666Z,3.33
2019-05-19T23:39:20.263Z,2.90
2019-05-19T23:44:24.941Z,3.77
2019-05-19T23:49:29.827Z,3.77
2019-05-19T23:54:34.534Z,2.83
2019-05-19T23:59:39.221Z,2.80
